Date,TemperatureHighF,TemperatureAvgF,TemperatureLowF,DewpointHighF,DewpointAvgF,DewpointLowF,HumidityHigh,HumidityAvg,HumidityLow,PressureMaxIn,PressureMinIn,WindSpeedMaxMPH,WindSpeedAvgMPH,GustSpeedMaxMPH,PrecipitationSumIn
2013-3-27,39.7,32.5,36.3,21.4,3.4,-99.9,53,42,45,29.95,29.94,2,-142,0,0.00
2013-3-28,56.7,42.9,30.0,25.4,20.2,17.8,76,43,23,29.97,29.86,8,2,0,0.00
2013-3-29,61.7,47.6,28.4,34.5,24.8,21.3,82,45,24,30.01,29.82,5,1,0,0.00
2013-3-30,66.6,54.2,45.5,47.9,43.2,35.2,99,70,40,29.90,29.75,5,1,0,0.28
2013-3-31,70.5,58.2,48.7,60.9,51.9,44.5,99,81,53,29.76,29.54,6,2,0,0.41
2013-4-1,73.8,62.4,53.8,56.5,45.6,34.6,99,62,26,29.77,29.60,8,2,0,0.07
2013-4-2,64.6,52.6,38.1,37.8,32.4,25.6,87,49,24,30.00,29.77,5,2,0,0.00
2013-4-3,60.6,52.3,44.2,30.8,22.1,16.2,49,31,23,30.11,29.95,8,3,0,0.00
2013-4-4,50.0,41.2,36.7,38.7,33.0,20.8,99,77,37,30.09,29.77,9,4,0,1.25
2013-4-5,65.3,48.6,36.3,47.0,40.2,34.8,99,76,45,29.87,29.72,7,2,0,0.00
2013-4-6,68.9,54.8,39.9,42.0,36.3,32.2,87,53,29,30.06,29.87,8,2,0,0.00
2013-4-7,73.0,56.2,38.8,49.4,42.2,33.9,87,62,34,30.10,29.90,4,1,0,0.00
2013-4-8,79.0,66.6,53.8,55.2,52.7,49.7,97,64,40,29.97,29.86,5,2,0,0.00
2013-4-9,84.6,70.4,54.5,58.7,56.0,51.6,98,63,39,30.01,29.88,5,1,0,0.00
2013-4-10,86.2,72.7,60.8,61.2,58.5,55.7,94,64,39,29.92,29.76,4,1,0,0.00
2013-4-11,85.3,71.2,60.1,66.3,61.2,55.8,99,73,46,29.80,29.57,3,1,0,0.00
2013-4-12,84.9,71.5,61.5,68.7,57.8,37.7,99,68,28,29.65,29.46,5,2,0,0.34
2013-4-13,80.4,64.7,45.0,45.4,41.0,36.9,89,46,23,29.88,29.67,3,0,0,0.00
2013-4-14,77.7,61.9,44.1,56.9,44.7,39.4,90,58,27,29.95,29.84,5,1,0,0.31
2013-4-15,72.0,64.4,58.1,60.3,57.5,52.1,98,79,62,30.04,29.82,5,1,0,0.00
2013-4-16,77.4,66.5,57.6,62.5,59.6,57.0,99,80,55,30.15,30.02,3,1,0,0.00
2013-4-17,84.4,70.3,57.2,65.1,60.3,56.9,99,74,40,30.10,29.93,5,1,0,0.00
2013-4-18,81.0,70.2,62.2,64.8,61.2,58.9,95,75,48,30.01,29.83,3,1,0,0.00
2013-4-19,79.2,67.7,54.5,70.5,64.0,52.8,99,89,66,29.84,29.59,7,1,0,0.69
2013-4-20,63.5,53.3,44.1,53.4,36.9,28.5,98,58,30,30.11,29.74,5,2,0,0.00
2013-4-21,63.5,51.7,40.6,41.8,39.0,35.9,95,65,42,30.31,30.11,6,2,0,0.00
2013-4-22,64.2,52.1,39.7,40.2,33.2,25.9,84,53,25,30.27,30.04,6,2,0,0.00
2013-4-23,67.8,56.4,50.2,53.5,46.9,39.0,97,71,57,30.11,29.93,4,1,0,0.00
2013-4-24,75.2,61.7,49.5,57.8,54.1,49.2,99,79,49,29.98,29.82,5,1,0,0.00
2013-4-25,70.5,60.4,47.8,58.5,44.2,32.1,92,59,25,30.09,29.86,4,1,0,0.00
2013-4-26,72.9,59.5,44.1,48.5,37.7,32.7,83,47,25,30.27,30.09,6,2,0,0.00
2013-4-27,66.2,58.0,53.8,58.1,51.5,45.6,99,80,57,30.17,30.05,0,0,0,0.15
2013-4-28,59.5,55.8,53.8,59.2,55.5,53.5,99,99,99,30.06,29.86,4,1,0,2.10
2013-4-29,72.5,62.2,56.1,64.1,59.7,55.8,99,93,69,29.86,29.74,3,0,0,0.21
2013-4-30,71.6,62.4,56.1,62.7,59.6,55.8,99,91,70,29.97,29.78,5,1,0,0.00
2013-5-1,64.8,58.7,52.7,58.5,56.2,52.4,99,92,78,30.09,29.97,4,2,0,0.00
2013-5-2,62.4,58.0,56.1,59.7,57.2,55.8,99,97,90,30.11,30.02,5,2,0,0.08
2013-5-3,68.5,60.3,53.2,56.8,53.2,45.4,97,78,58,30.03,29.92,6,3,0,0.00
2013-5-4,62.8,55.5,48.4,52.8,48.1,43.3,93,77,65,29.94,29.80,7,4,0,0.00
2013-5-5,58.8,54.3,50.9,58.5,52.6,48.4,99,94,83,29.84,29.68,9,4,0,0.57
2013-5-6,73.2,62.2,53.2,62.7,56.3,48.9,99,83,52,29.70,29.61,8,2,0,1.14
2013-5-7,71.4,58.3,46.9,54.4,50.8,46.6,99,79,48,29.75,29.66,4,1,0,0.05
2013-5-8,75.2,62.8,51.1,61.6,56.2,50.8,99,81,50,29.82,29.72,3,0,0,0.00
2013-5-9,82.6,67.2,52.5,60.3,56.0,52.2,99,72,40,29.89,29.79,3,0,0,0.00
2013-5-10,84.4,70.7,55.8,63.5,59.7,54.8,99,71,44,29.88,29.76,4,0,0,0.00
2013-5-11,82.2,72.1,63.3,64.9,62.1,60.0,98,72,50,29.78,29.62,5,1,0,0.09
2013-5-12,75.6,64.8,54.0,62.7,50.8,36.7,99,65,35,29.85,29.63,5,1,0,0.01
2013-5-13,69.8,56.7,44.6,42.5,37.4,31.1,87,52,27,29.99,29.83,4,1,0,0.00
2013-5-14,75.2,59.3,40.6,46.8,40.5,33.3,90,53,30,30.08,29.88,5,1,0,0.00
2013-5-15,90.1,71.0,54.7,62.6,55.4,46.4,85,60,38,29.89,29.73,4,1,0,0.00
2013-5-16,83.8,73.7,62.6,63.9,59.7,55.7,85,63,40,29.84,29.73,3,0,0,0.00
2013-5-17,87.1,73.6,61.9,65.5,62.5,59.7,95,71,46,29.90,29.81,3,0,0,0.00
2013-5-18,77.2,69.1,63.9,68.4,64.2,60.9,98,85,65,29.96,29.88,3,0,0,0.02
2013-5-19,73.6,67.8,64.8,70.6,66.9,64.3,99,97,86,29.94,29.85,3,0,0,1.48
2013-5-20,84.4,71.7,65.8,71.5,68.2,65.5,99,90,60,29.94,29.82,3,0,0,0.65
2013-5-21,83.7,69.1,64.0,74.2,66.9,63.6,99,94,69,29.87,29.76,4,0,0,0.58
2013-5-22,83.8,73.5,65.7,71.3,67.5,62.4,99,83,60,29.83,29.69,3,1,0,0.08
2013-5-23,79.3,69.0,64.0,70.5,66.1,62.8,99,91,70,29.78,29.62,3,0,0,0.91
2013-5-24,72.3,64.8,52.5,63.1,51.6,36.1,99,68,29,30.00,29.66,7,2,0,0.01
2013-5-25,79.9,60.3,42.8,53.0,44.5,39.6,93,61,29,30.14,29.95,4,1,0,0.00
2013-5-26,78.6,63.7,54.3,54.2,46.9,41.6,87,56,31,30.10,29.98,3,1,0,0.00
2013-5-27,83.8,68.2,52.5,61.8,55.7,49.8,91,68,41,30.09,29.96,4,1,0,0.00
2013-5-28,85.5,72.9,62.8,67.0,63.7,60.1,94,75,50,30.06,29.95,4,1,0,0.00
2013-5-29,86.7,73.5,61.9,66.4,63.2,59.2,91,72,50,30.07,29.97,4,1,0,0.00
2013-5-30,85.8,72.7,61.0,66.8,63.3,59.6,95,75,46,30.11,29.97,4,1,0,0.00
2013-5-31,88.0,74.7,63.7,69.4,66.4,62.2,96,77,50,30.06,29.91,3,1,0,0.00
2013-6-1,87.1,76.4,67.1,69.1,67.1,65.3,94,75,50,29.96,29.83,4,1,0,0.00
2013-6-2,84.6,75.1,67.8,71.4,67.8,65.4,96,79,56,29.88,29.71,5,1,0,0.99
2013-6-3,85.8,72.7,66.7,73.0,68.7,64.6,98,88,61,29.79,29.66,4,0,0,1.19
2013-6-4,82.9,73.5,65.1,70.7,66.9,63.5,96,81,63,29.90,29.78,5,2,0,0.00
2013-6-5,80.2,71.5,67.5,70.5,67.0,64.1,96,86,72,29.94,29.79,4,1,0,0.27
2013-6-6,76.6,71.5,69.1,72.7,70.0,68.2,98,95,86,29.81,29.64,3,1,0,1.17
2013-6-8,83.8,72.7,66.6,72.8,68.7,66.0,99,88,64,29.91,29.65,3,0,0,0.00
2013-6-9,86.5,73.6,65.1,74.9,69.0,63.9,97,86,62,29.97,29.87,6,0,0,0.00
2013-6-10,81.3,72.4,68.4,75.7,70.6,66.9,98,94,81,29.90,29.70,6,1,0,1.55
2013-6-11,86.7,75.1,67.5,72.4,68.1,64.8,99,81,50,29.80,29.72,4,1,0,0.02
2013-6-12,91.9,78.3,65.1,77.1,70.8,63.0,94,79,55,29.83,29.69,3,0,0,0.00
2013-6-13,92.7,82.3,72.9,76.3,72.8,71.1,94,75,52,29.70,29.47,6,1,0,0.00
2013-6-14,83.5,72.5,59.7,65.2,59.6,55.6,98,67,43,29.83,29.61,4,1,0,0.00
2013-6-15,84.2,71.3,58.1,65.3,61.7,56.3,94,74,48,29.95,29.83,3,0,0,0.00
2013-6-16,88.0,74.8,64.8,70.5,66.7,61.5,90,77,55,29.96,29.82,3,1,0,0.00
2013-6-17,86.7,74.4,69.3,74.8,69.4,65.7,97,85,63,29.86,29.74,5,0,0,0.55
2013-6-18,84.4,74.0,69.1,74.8,70.9,68.2,99,91,69,29.80,29.58,4,1,0,0.07
2013-6-19,82.2,74.0,67.6,71.0,67.6,63.9,96,82,56,29.91,29.69,4,1,0,0.00
2013-6-20,84.2,72.8,65.1,68.4,66.0,63.6,96,81,56,30.04,29.92,6,1,0,0.00
2013-6-21,82.9,71.3,60.8,65.6,62.5,59.1,94,76,51,30.08,29.99,5,1,0,0.00
2013-6-22,83.1,72.3,63.5,72.2,66.9,59.9,93,84,64,30.05,29.91,4,1,0,0.02
2013-6-23,84.7,73.4,67.3,76.4,70.9,66.1,96,92,69,30.03,29.94,3,0,0,0.68
2013-6-24,86.5,73.8,68.7,77.7,71.2,68.1,99,92,73,30.04,29.92,4,0,0,0.00
2013-6-25,90.5,78.2,70.2,76.5,72.1,68.7,97,83,58,29.96,29.82,3,0,0,0.00
2013-6-26,90.3,77.2,69.6,77.4,71.3,68.1,96,83,58,29.85,29.73,3,1,0,0.00
2013-6-27,89.2,77.4,70.3,78.3,73.3,67.9,96,88,68,29.76,29.53,3,1,0,0.07
2013-6-28,91.4,78.6,69.6,77.1,72.9,68.4,98,84,60,29.57,29.40,9,1,0,1.65
2013-6-29,84.9,76.2,69.1,75.3,71.9,68.2,98,87,67,29.53,29.42,3,0,0,0.00
2013-6-30,83.7,74.5,66.4,77.0,71.8,65.8,98,92,74,29.65,29.51,3,0,0,0.64
2013-7-1,81.3,72.7,66.4,75.1,70.7,65.8,99,94,78,29.80,29.63,4,1,0,0.14
2013-7-2,77.0,72.2,70.5,74.8,71.2,70.0,99,97,90,29.96,29.79,4,1,0,0.73
2013-7-3,80.4,74.4,71.2,78.2,73.6,70.9,99,97,92,30.04,29.93,5,0,0,0.05
2013-7-4,86.9,76.3,72.5,78.9,74.2,72.2,99,94,65,30.07,29.96,5,1,0,0.30
2013-7-5,86.9,76.9,72.1,77.1,74.0,71.5,99,91,69,30.07,29.99,5,1,0,0.13
2013-7-6,82.4,74.0,69.4,79.0,73.1,69.1,99,97,85,30.06,29.94,3,0,0,0.27
2013-7-7,88.2,76.0,70.3,79.7,74.1,70.0,99,94,72,30.01,29.88,3,1,0,0.50
2013-7-8,85.6,75.5,70.9,79.2,74.0,70.6,99,95,77,30.01,29.91,3,0,0,0.04
2013-7-9,90.1,78.3,71.6,78.6,75.0,71.3,99,90,69,29.99,29.87,3,0,0,0.00
2013-7-10,87.3,77.3,70.0,77.9,74.2,69.7,99,91,72,29.93,29.77,3,0,0,0.00
2013-7-11,79.0,73.8,70.5,78.1,73.4,70.2,99,98,95,29.79,29.70,3,0,0,0.44
2013-7-12,79.5,73.5,69.6,74.6,71.6,69.3,99,94,82,29.82,29.68,4,1,0,0.00
2013-7-13,80.6,73.4,68.9,75.9,71.7,68.6,99,95,82,29.93,29.82,4,1,0,0.13
2013-7-14,87.1,76.5,71.8,76.7,73.3,71.5,99,91,65,30.10,29.91,6,2,0,0.19
2013-7-15,88.5,77.2,69.3,75.9,72.9,69.0,99,88,63,30.15,30.06,3,1,0,0.00
2013-7-16,93.4,79.7,70.0,76.6,72.9,69.7,99,82,53,30.13,30.02,3,0,0,0.00
2013-7-17,90.3,76.6,71.4,79.8,74.3,71.1,99,93,69,30.06,29.94,3,0,0,0.05
2013-7-18,91.9,79.6,69.8,80.4,75.0,69.5,99,87,66,29.99,29.87,3,0,0,0.00
2013-7-19,91.4,80.2,73.2,78.4,75.4,71.9,99,86,66,29.94,29.80,4,0,0,0.00
2013-7-20,85.5,77.7,73.4,78.4,74.9,72.0,99,91,77,29.86,29.73,3,0,0,0.00
2013-7-21,90.9,76.7,70.5,77.8,73.5,70.2,99,91,64,29.83,29.70,5,1,0,1.74
2013-7-22,85.3,75.1,70.5,77.3,73.4,70.2,99,95,74,29.80,29.65,4,0,0,0.02
2013-7-23,90.7,78.3,71.8,75.7,73.4,71.2,99,86,59,29.67,29.56,3,0,0,0.00
2013-7-24,91.2,77.8,69.3,75.7,72.3,69.0,99,85,55,29.68,29.54,5,1,0,1.96
2013-7-25,82.6,73.5,68.4,73.2,70.0,68.1,99,90,70,29.84,29.62,4,1,0,0.01
2013-7-26,85.5,74.4,65.8,72.8,69.8,65.5,99,87,62,29.92,29.81,4,1,0,0.00
2013-7-27,80.2,72.0,68.9,75.8,71.1,68.6,99,97,83,29.84,29.73,3,0,0,0.72
2013-7-28,87.3,75.9,69.4,75.1,72.2,69.1,99,89,65,29.81,29.72,2,0,0,0.05
2013-7-29,83.5,74.7,68.9,73.2,70.9,68.6,99,89,65,29.96,29.80,3,1,0,0.00
2013-7-30,84.7,74.3,66.0,73.0,68.1,64.1,99,83,57,30.03,29.94,3,0,0,0.00
2013-7-31,82.0,73.8,69.6,75.1,71.8,69.2,99,94,76,29.96,29.79,3,0,0,0.06
2013-8-1,86.0,75.3,69.8,76.3,72.8,69.5,99,92,71,29.81,29.68,2,0,0,0.01
2013-8-2,89.2,76.8,68.7,75.3,71.5,68.4,99,85,60,29.84,29.73,3,0,0,0.00
2013-8-3,87.8,78.3,72.0,78.1,73.9,71.7,99,87,64,29.84,29.74,3,0,0,0.00
2013-8-4,86.0,76.5,68.9,73.2,69.6,66.3,99,81,52,29.84,29.72,5,1,0,0.00
2013-8-5,86.0,74.3,67.6,70.8,68.8,67.2,99,84,60,29.89,29.78,4,0,0,0.00
2013-8-6,74.3,70.3,66.7,72.1,69.0,65.8,99,96,82,29.88,29.79,4,0,0,0.78
2013-8-7,84.0,75.5,69.1,74.8,71.7,68.8,99,89,67,29.91,29.82,3,0,0,0.00
2013-8-8,85.8,76.3,71.2,77.8,74.2,70.9,99,94,74,29.90,29.81,3,0,0,0.01
2013-8-9,89.2,78.6,72.0,79.4,75.3,71.7,99,90,71,29.89,29.81,4,0,0,0.17
2013-8-10,91.2,78.4,72.1,80.4,75.0,71.8,99,90,69,29.92,29.83,3,0,0,0.00
2013-8-11,91.2,78.8,70.7,78.7,74.4,70.4,99,88,62,29.94,29.83,0,0,0,0.00
2013-8-12,92.3,79.7,71.6,78.1,74.0,71.3,99,84,57,29.88,29.75,0,0,0,0.00
2013-8-13,89.4,78.6,70.7,77.9,74.1,70.4,99,87,68,29.78,29.60,0,0,0,0.00
2013-8-14,76.8,72.4,64.9,73.3,66.4,61.8,98,82,65,29.88,29.66,0,0,0,0.00
2013-8-15,74.5,67.1,60.3,62.9,60.3,57.5,97,80,57,29.96,29.87,5,1,0,0.00
2013-8-16,68.9,63.8,60.1,64.3,61.1,57.6,99,91,79,29.98,29.88,3,1,0,0.07
2013-8-17,66.7,63.6,60.8,66.4,63.2,60.5,99,99,92,29.98,29.92,4,1,0,0.68
2013-8-18,83.3,71.8,65.1,75.1,69.5,64.8,99,93,71,30.02,29.92,3,0,0,0.05
2013-8-19,76.8,70.8,67.5,73.0,70.0,67.2,99,98,86,29.99,29.89,3,0,0,0.57
2013-8-20,81.9,71.8,64.2,75.7,70.1,63.9,99,94,77,30.00,29.91,1,0,0,0.00
2013-8-21,82.6,74.4,70.2,78.9,73.2,69.9,99,96,80,30.04,29.92,4,0,0,0.44
2013-8-22,88.9,77.2,69.1,76.3,72.3,68.8,99,87,57,29.96,29.80,2,0,0,0.00
2013-8-23,86.7,75.5,68.4,74.8,70.9,68.1,99,87,58,29.87,29.76,4,0,0,0.00
2013-8-24,80.6,71.0,64.2,69.3,64.3,61.2,99,81,55,30.09,29.88,5,2,0,0.00
2013-8-25,79.2,68.5,59.4,65.8,62.0,59.1,99,82,54,30.20,30.09,5,1,0,0.00
2013-8-26,81.0,67.9,56.3,66.4,61.8,56.0,99,83,53,30.13,29.93,2,0,0,0.00
2013-8-27,87.3,73.6,62.4,74.3,68.2,62.1,99,85,60,29.95,29.79,0,0,0,0.00
2013-8-28,86.2,77.5,68.9,76.9,73.1,68.6,99,87,67,29.82,29.71,0,0,0,0.00
2013-8-29,90.0,79.8,73.2,77.0,74.1,72.4,99,84,61,29.80,29.69,0,0,0,0.00
2013-8-30,86.4,75.6,69.1,72.4,68.9,64.5,99,82,49,29.88,29.75,0,0,0,0.00
2013-8-31,86.2,74.7,67.1,77.4,72.3,66.8,99,93,70,29.78,29.68,0,0,0,0.22
2013-9-1,87.6,75.5,68.7,78.6,72.7,68.4,99,92,72,29.73,29.60,2,0,0,0.92
2013-9-2,86.7,76.0,69.8,78.1,73.6,69.5,99,93,70,29.73,29.62,1,0,0,0.05
2013-9-3,89.8,77.6,70.7,76.4,72.6,68.6,99,86,56,29.78,29.63,2,0,0,0.00
2013-9-4,86.2,74.3,64.9,71.8,66.6,62.5,98,79,53,29.91,29.77,3,0,0,0.00
2013-9-5,86.0,73.3,65.7,71.1,67.1,62.7,99,83,54,29.94,29.86,3,0,0,0.00
2013-9-6,84.2,72.1,64.4,65.5,62.9,59.2,93,75,49,30.00,29.88,4,1,0,0.00
2013-9-7,82.9,70.7,60.3,68.7,64.9,59.7,99,83,58,29.96,29.79,2,0,0,0.00
2013-9-8,85.8,74.1,64.9,71.4,67.0,64.6,99,81,50,29.81,29.73,3,0,0,0.00
2013-9-9,87.3,75.0,65.7,72.0,68.0,65.4,99,81,51,29.96,29.80,6,0,0,0.00
2013-9-10,88.0,75.4,65.7,73.9,69.3,65.4,99,83,55,30.06,29.95,2,0,0,0.00
2013-9-11,87.1,75.2,66.6,73.3,69.4,66.3,99,84,56,30.04,29.90,3,0,0,0.00
2013-9-12,87.3,75.9,68.0,74.4,70.6,67.0,98,85,63,29.89,29.64,0,0,0,0.00
2013-9-13,84.2,74.8,67.3,70.5,63.0,52.9,98,70,43,29.70,29.56,4,1,0,0.00
2013-9-14,74.7,65.8,57.2,61.8,55.4,50.6,94,70,56,29.91,29.70,6,1,0,0.00
2013-9-15,79.2,66.9,56.3,68.3,62.5,55.5,98,87,66,30.02,29.90,4,0,0,0.00
2013-9-16,84.4,74.8,66.0,72.5,66.9,60.3,99,79,46,29.96,29.84,3,1,0,0.00
2013-9-17,74.8,68.5,62.1,65.2,57.7,54.7,83,69,54,30.11,29.96,5,2,0,0.00
2013-9-18,73.0,63.1,55.0,59.8,55.4,51.8,95,78,54,30.11,29.97,4,1,0,0.00
2013-9-19,77.5,65.7,55.8,66.6,60.6,55.0,98,85,62,30.00,29.88,2,0,0,0.00
2013-9-20,83.8,70.8,61.2,70.2,66.2,60.9,99,86,59,29.89,29.71,2,0,0,0.00
2013-9-21,75.7,69.8,64.2,71.8,68.4,63.9,99,95,83,29.74,29.46,4,1,0,2.68
2013-9-22,75.9,65.8,58.3,65.2,59.7,55.7,99,83,52,29.70,29.47,5,2,0,0.47
2013-9-23,72.7,63.2,55.6,61.2,57.8,54.8,99,84,60,29.87,29.70,4,1,0,0.00
2013-9-24,76.1,64.1,55.6,62.4,59.1,55.3,99,86,59,29.88,29.73,3,0,0,0.00
2013-9-25,69.1,63.4,59.5,65.0,61.9,58.9,99,95,83,29.74,29.66,2,0,0,0.17
2013-9-26,73.9,64.9,58.1,62.3,59.1,53.7,99,83,54,29.83,29.67,5,1,0,0.00
2013-9-27,72.9,62.5,53.8,59.6,56.0,53.2,98,81,55,29.98,29.83,5,1,0,0.00
2013-9-28,70.0,60.4,53.4,57.3,54.6,52.8,99,83,59,30.06,29.97,5,1,0,0.00
2013-9-29,70.9,61.0,54.1,59.5,56.0,52.6,98,85,62,29.97,29.83,4,1,0,0.00
2013-9-30,74.3,61.6,52.3,61.4,57.0,52.0,99,87,58,29.92,29.80,3,0,0,0.00
2013-10-1,79.9,65.5,54.0,64.4,59.8,53.7,99,84,54,29.94,29.84,3,0,0,0.00
2013-10-2,81.7,67.8,57.2,66.3,62.0,56.9,99,84,54,29.96,29.86,3,0,0,0.00
2013-10-3,82.6,68.9,60.4,68.2,63.5,60.1,99,85,57,29.94,29.86,3,0,0,0.00
2013-10-4,83.7,70.6,61.3,68.5,65.2,61.0,99,85,56,29.95,29.86,2,0,0,0.00
2013-10-5,84.2,71.5,61.0,70.5,66.1,60.7,99,85,55,29.94,29.83,3,0,0,0.00
2013-10-6,82.0,70.3,60.8,70.2,66.2,60.5,99,88,64,29.87,29.71,2,0,0,0.02
2013-10-7,78.4,70.7,64.9,74.4,68.7,56.0,99,94,73,29.79,29.61,4,1,0,0.40
2013-10-8,64.8,60.8,57.7,56.7,51.4,47.6,79,71,65,30.00,29.79,7,2,0,0.00
2013-10-9,70.2,60.4,50.4,55.7,51.2,46.9,90,72,55,30.02,29.91,5,2,0,0.00
2013-10-10,70.9,62.1,54.1,63.0,56.4,49.1,92,82,74,29.92,29.76,4,1,0,0.00
2013-10-11,77.2,68.0,60.3,65.5,61.9,58.8,95,82,57,29.79,29.71,3,0,0,0.00
2013-10-12,74.3,66.1,57.2,64.6,62.3,56.9,99,89,69,29.88,29.75,2,0,0,0.00
2013-10-13,68.9,64.8,61.9,64.8,63.4,61.6,99,95,85,30.01,29.88,4,1,0,0.05
2013-10-14,67.6,63.0,59.9,64.0,61.5,59.6,99,95,87,30.04,29.95,3,2,0,0.02
2013-10-15,73.8,62.9,56.5,59.8,56.5,51.5,99,82,47,29.99,29.84,5,1,0,0.00
2013-10-16,74.1,63.1,53.2,63.5,59.4,52.9,99,89,68,29.88,29.74,3,0,0,0.00
2013-10-17,72.5,64.9,60.3,66.7,63.6,60.0,99,96,80,29.77,29.65,3,0,0,0.04
2013-10-18,67.8,61.9,55.4,65.9,58.6,54.4,99,90,71,29.84,29.68,4,1,0,0.00
2013-10-19,67.1,59.7,54.7,63.9,58.3,54.4,99,95,75,29.77,29.64,3,0,0,0.00
2013-10-20,63.9,54.1,46.6,54.0,46.9,39.6,99,80,47,29.92,29.72,4,1,0,0.00
2013-10-21,68.2,60.7,53.4,54.7,53.5,51.5,98,79,56,29.90,29.81,3,0,0,0.00
2013-10-22,67.6,59.5,53.2,61.1,57.3,52.6,99,93,70,29.83,29.60,2,0,0,0.00
2013-10-23,66.6,57.0,43.7,57.6,45.2,32.0,99,69,32,29.83,29.51,6,2,0,0.00
2013-10-24,59.4,46.6,35.2,44.6,37.0,32.0,95,72,42,29.99,29.83,4,1,0,0.00
2013-10-25,52.0,45.4,36.7,42.2,34.6,30.1,86,67,45,30.23,29.98,5,1,0,0.00
2013-10-26,57.6,43.1,29.3,38.5,33.1,28.3,97,71,40,30.22,29.92,4,1,0,0.00
2013-10-27,67.5,53.0,39.2,49.7,43.8,38.0,97,73,48,29.97,29.87,4,0,0,0.00
2013-10-28,67.8,54.6,46.8,58.6,52.1,46.5,99,92,68,30.09,29.94,2,0,0,0.00
2013-10-29,71.2,59.6,50.2,59.3,54.5,49.9,99,85,58,30.17,30.05,4,0,0,0.00
2013-10-30,76.3,60.9,50.2,60.4,55.8,49.9,99,85,56,30.10,29.95,2,0,0,0.00
2013-10-31,72.7,63.6,54.3,65.5,58.9,54.0,99,86,66,29.98,29.70,2,0,0,0.00
2013-11-1,68.5,64.6,57.7,67.3,63.2,57.4,99,95,89,29.70,29.46,4,1,0,0.49
2013-11-2,69.6,56.9,47.1,58.3,51.6,43.1,99,85,39,29.77,29.51,4,1,0,0.06
2013-11-3,60.3,48.9,38.3,44.0,39.0,35.3,99,72,40,30.15,29.77,6,1,0,0.00
2013-11-4,57.9,46.2,36.3,39.2,35.4,31.0,98,69,38,30.34,30.16,5,2,0,0.00
2013-11-5,58.6,47.5,36.3,48.8,40.6,31.8,90,77,64,30.36,30.23,5,2,0,0.00
2013-11-6,70.9,57.4,46.9,57.9,52.1,46.5,99,84,61,30.22,29.91,5,1,0,0.01
2013-11-7,70.0,56.1,44.6,62.0,49.1,33.5,99,80,46,29.92,29.74,7,1,0,0.00
2013-11-8,56.1,46.9,34.7,34.4,29.7,22.9,86,55,28,30.13,29.92,7,2,0,0.00
2013-11-9,58.6,45.1,30.4,40.8,32.6,27.9,96,66,33,30.19,30.02,3,0,0,0.00
2013-11-10,70.9,54.9,42.3,40.1,36.6,29.1,82,53,29,30.05,29.93,5,1,0,0.00
2013-11-11,59.0,46.6,35.4,34.6,30.6,25.2,85,56,33,30.19,29.99,4,1,0,0.00
2013-11-12,63.7,44.2,30.9,39.6,33.9,20.2,99,71,34,30.28,29.88,10,2,0,0.08
2013-11-13,43.9,32.9,25.9,23.9,19.8,15.4,86,61,34,30.39,30.28,6,2,0,0.00
2013-11-14,55.9,38.4,26.1,26.8,23.4,20.6,92,59,26,30.32,30.17,4,0,0,0.00
2013-11-15,60.3,47.3,30.9,48.1,37.3,22.3,97,69,47,30.19,30.03,3,0,0,0.01
2013-11-16,65.8,55.3,48.9,58.6,53.4,48.4,99,94,76,30.11,30.03,3,0,0,0.00
2013-11-17,71.8,60.1,51.1,64.8,58.3,50.8,99,94,71,30.04,29.73,3,1,0,0.05
2013-11-18,76.3,65.9,52.9,67.0,51.4,31.8,99,65,31,29.80,29.64,7,2,0,0.06
2013-11-19,55.0,47.8,41.0,32.2,27.3,24.1,70,46,33,30.11,29.80,8,3,0,0.00
2013-11-20,52.5,44.0,34.9,35.8,31.8,28.1,76,62,49,30.28,30.11,7,3,0,0.00
2013-11-21,59.5,50.4,43.3,47.7,41.3,33.5,78,71,60,30.33,30.21,5,2,0,0.00
2013-11-22,70.3,59.1,51.1,60.5,53.4,44.8,95,81,69,30.22,29.93,4,1,0,0.00
2013-11-23,60.8,55.6,41.7,59.7,45.1,16.5,99,72,33,30.04,29.88,6,2,0,0.00
2013-11-24,41.2,33.6,25.0,23.1,9.9,1.7,61,38,21,30.37,30.04,10,3,0,0.00
2013-11-25,42.6,31.8,19.6,19.2,11.7,6.0,78,46,23,30.42,30.18,3,1,0,0.00
2013-11-26,46.9,38.7,32.0,46.6,32.6,12.2,99,84,34,30.17,29.42,7,2,0,2.00
2013-11-27,45.3,39.2,28.6,45.0,34.1,17.9,99,83,58,30.03,29.35,9,4,0,0.41
2013-11-28,44.6,30.8,20.1,25.2,20.1,16.4,95,68,35,30.33,30.04,4,1,0,0.00
2013-11-29,51.6,37.1,24.4,28.3,24.7,22.3,97,65,32,30.45,30.31,6,2,0,0.00
2013-11-30,47.1,35.4,27.5,28.7,25.4,23.3,85,68,44,30.49,30.22,6,2,0,0.00
2013-12-1,58.8,42.6,29.1,41.1,34.4,26.0,98,75,45,30.22,29.86,3,0,0,0.00
2013-12-2,58.1,44.8,31.6,41.3,38.1,31.4,99,80,48,29.86,29.65,4,1,0,0.00
2013-12-3,62.8,52.2,41.4,53.0,47.1,39.3,93,83,67,29.80,29.69,3,0,0,0.00
2013-12-4,64.0,57.0,52.5,61.0,56.0,49.7,99,97,87,29.93,29.78,4,0,0,0.00
2013-12-5,65.5,62.3,58.3,64.9,61.9,58.0,99,99,98,29.96,29.85,3,1,0,0.10
2013-12-6,76.3,69.0,63.0,66.8,64.9,62.1,99,88,70,29.90,29.79,6,3,0,0.00
2013-12-7,68.5,53.9,45.5,65.7,50.9,39.7,99,90,80,30.26,29.81,18,4,0,0.06
2013-12-8,45.3,37.5,33.6,39.5,35.5,33.3,99,93,77,30.26,30.12,7,3,0,0.11
2013-12-9,46.0,40.4,34.2,45.7,40.1,33.9,99,99,99,30.11,29.88,3,0,0,0.26
2013-12-10,52.5,44.9,28.9,49.9,41.6,25.3,99,89,58,30.17,29.73,7,1,0,0.27
2013-12-11,49.8,34.5,23.9,30.0,26.4,23.7,99,77,36,30.30,30.14,4,1,0,0.00
2013-12-12,46.8,35.1,26.6,29.3,22.7,15.7,93,64,29,30.27,30.12,7,1,0,0.00
2013-12-13,52.0,36.1,22.1,33.7,25.1,17.1,90,67,37,30.23,30.11,5,0,0,0.00
2013-12-14,47.7,40.5,38.1,47.4,37.5,29.4,99,89,69,30.12,29.63,12,2,0,1.24
2013-12-15,53.4,43.0,31.6,44.8,37.0,28.7,99,82,51,29.94,29.57,6,2,0,0.03
2013-12-16,57.0,41.1,28.0,35.5,31.8,27.3,98,73,40,30.03,29.93,3,0,0,0.00
2013-12-17,62.2,48.7,34.3,37.0,34.1,30.0,86,59,38,29.97,29.76,5,2,0,0.00
2013-12-18,52.2,41.0,31.3,29.9,20.8,12.2,68,47,20,30.13,29.88,6,1,0,0.00
2013-12-19,63.1,44.4,29.5,29.7,24.4,19.8,77,49,20,30.17,30.07,4,1,0,0.00
2013-12-20,64.8,52.4,41.5,53.8,45.5,30.9,98,78,57,30.09,29.98,4,1,0,0.00
2013-12-21,72.9,60.7,48.7,65.3,57.9,48.4,99,91,71,29.99,29.85,4,1,0,0.00
2013-12-22,73.6,67.0,62.6,70.5,66.1,62.3,99,97,84,29.91,29.83,6,2,0,1.22
2013-12-23,63.5,58.4,45.3,63.2,57.5,38.9,99,97,77,30.00,29.83,6,2,0,2.16
2013-12-24,46.9,39.8,29.3,38.3,27.6,16.2,80,62,40,30.29,29.98,8,3,0,0.00
2013-12-25,38.5,29.2,21.4,24.6,15.2,9.7,78,58,32,30.40,30.24,4,1,0,0.00
2013-12-26,52.9,39.3,32.2,27.6,24.4,20.1,76,57,32,30.24,30.09,4,1,0,0.00
2013-12-27,51.3,37.3,27.9,26.1,23.1,19.9,84,59,31,30.32,30.20,4,1,0,0.00
2013-12-28,55.9,41.1,25.5,37.6,28.1,23.2,96,64,33,30.26,29.95,5,1,0,0.00
2013-12-29,53.4,45.2,40.6,51.1,44.1,30.9,99,96,52,29.95,29.62,5,2,0,1.70
2013-12-30,54.3,43.9,34.3,47.0,41.5,34.0,99,92,67,29.95,29.77,2,0,0,0.00
2013-12-31,50.9,41.8,32.0,43.6,33.2,25.0,99,75,38,30.22,29.92,5,1,0,0.00
2014-1-1,50.9,38.6,30.4,34.8,30.3,24.7,93,74,44,30.24,29.99,5,0,0,0.00
2014-1-2,50.7,43.5,36.5,46.9,41.1,30.4,99,91,74,29.97,29.47,5,1,0,0.26